Coatzacoalcos, Mexico

9:16 AM CST on February 07, 2016 (GMT -0600)
Minatitlan | | Change Station
CLOSE
Current Station
Airport
Location: Minatitlan,
Elevation: 36 ft
Nearby Weather Stations

Elev 36 ft 18.10 °N, 94.58 °W | Updated 30 minutes ago

Mostly Cloudy
Mostly Cloudy
70 °F
Feels Like 70 °F
N
23
Wind Variable Wind from North

Today
High -- | Low -- °F
--% Chance of Precip.
Yesterday
High -- | Low -- °F
Precip. -- in
Pressure 30.45 in
Visibility 10.0 miles
Clouds Mostly Cloudy 2000 ft
Dew Point 66 °F
Humidity 88%
Rainfall 0.00 in
Snow Depth Not available.
6:48 AM 6:14 PM
Waning Crescent, 1% visible
METAR MMMT 071446Z 36020KT 10SM BKN020 21/19 A3022 RMK SLP310 900 8/500
Pressure 30.45 in
Visibility 10.0 miles
Clouds Mostly Cloudy 2000 ft
Dew Point 66 °F
Humidity 88%
Rainfall 0.00 in
Snow Depth Not available.
6:48 AM 6:14 PM
Waning Crescent, 1% visible
METAR MMMT 071446Z 36020KT 10SM BKN020 21/19 A3022 RMK SLP310 900 8/500

10-Day Weather Forecast

No radar image for this location.
×

Almanac

Astronomy

Feb. 07, 2016 Rise Set
Actual Time
Civil Twilight
Nautical Twilight
Astronomical Twilight
Moon
Length of Visible Light
Length of Day
Tomorrow will be .
, % of the Moon is Illuminated

Today's Extremes

Country Highs Country Lows

Community

WunderPhotos

Upload Photos

1,891,214 photos uploaded!

WunderBlog® & News

Nearby

Air Quality

  Air Quality AQ Index Pollutant
Not available.

Snow Depth

Station Depth Elevation

Earthquake Activity

City Distance Mag. Time & Date
Minimum magnitude displayed is 2.5.

Coastal Water Temperatures

Place Temperature

Stations

Nearby Weather Stations

Station Location Temp. Windchill Dew Point Humidity Wind Precip. Elev Updated Type